createdAt,value
2023-05-15T00:01:18.014Z,14.19
2023-05-15T00:04:01.217Z,14.20
2023-05-15T00:06:39.196Z,14.21
2023-05-15T00:09:17.626Z,14.21
2023-05-15T00:12:11.529Z,14.23
2023-05-15T00:14:48.988Z,14.24
2023-05-15T00:17:41.682Z,14.26
2023-05-15T00:20:23.660Z,14.29
2023-05-15T00:22:58.414Z,14.32
2023-05-15T00:25:31.224Z,14.32
2023-05-15T00:28:14.134Z,14.33
2023-05-15T00:30:52.052Z,14.34
2023-05-15T00:33:45.151Z,14.33
2023-05-15T00:36:18.081Z,14.32
2023-05-15T00:38:58.694Z,14.31
2023-05-15T00:41:42.337Z,14.30
2023-05-15T00:44:29.997Z,14.31
2023-05-15T00:47:23.905Z,14.29
2023-05-15T00:50:07.564Z,14.29
2023-05-15T00:52:44.631Z,14.29
2023-05-15T00:55:20.033Z,14.30
2023-05-15T00:57:54.224Z,14.30
2023-05-15T01:00:33.740Z,14.27
2023-05-15T01:03:09.787Z,14.25
2023-05-15T01:05:42.499Z,14.25
2023-05-15T01:08:22.830Z,14.25
2023-05-15T01:10:59.687Z,14.22
2023-05-15T01:13:35.075Z,14.20
2023-05-15T01:16:09.507Z,14.16
2023-05-15T01:19:02.521Z,14.15
2023-05-15T01:22:22.511Z,14.15
2023-05-15T01:25:31.272Z,14.16
2023-05-15T01:28:13.604Z,14.17
2023-05-15T01:30:53.859Z,14.18
2023-05-15T01:33:35.668Z,14.21
2023-05-15T01:36:23.428Z,14.20
2023-05-15T01:39:23.215Z,14.20
2023-05-15T01:42:12.338Z,14.19
2023-05-15T01:45:05.138Z,14.19
2023-05-15T01:47:50.833Z,14.18
2023-05-15T01:50:28.067Z,14.20
2023-05-15T01:53:06.464Z,14.21
2023-05-15T01:55:51.718Z,14.22
2023-05-15T01:58:26.569Z,14.25
2023-05-15T02:01:00.759Z,14.25
2023-05-15T02:03:39.465Z,14.24
2023-05-15T02:06:12.736Z,14.22
2023-05-15T02:08:49.900Z,14.23
2023-05-15T02:11:30.176Z,14.24
2023-05-15T02:14:14.164Z,14.24
2023-05-15T02:16:51.691Z,14.22
2023-05-15T02:19:44.405Z,14.18
2023-05-15T02:22:23.102Z,14.14
2023-05-15T02:25:09.267Z,14.12
2023-05-15T02:28:05.743Z,14.07
2023-05-15T02:31:05.751Z,13.99
2023-05-15T02:34:06.195Z,13.92
2023-05-15T02:36:44.600Z,13.88
2023-05-15T02:39:31.046Z,13.87
2023-05-15T02:42:19.604Z,13.87
2023-05-15T02:44:56.730Z,13.88
2023-05-15T02:47:40.670Z,13.89
2023-05-15T02:50:35.710Z,13.90
2023-05-15T02:53:28.294Z,13.91
2023-05-15T02:56:21.545Z,13.92
2023-05-15T02:59:18.789Z,13.94
2023-05-15T03:02:12.108Z,13.95
2023-05-15T03:04:54.445Z,13.96
2023-05-15T03:07:37.710Z,13.98
2023-05-15T03:10:24.802Z,14.00
2023-05-15T03:13:17.876Z,14.03
2023-05-15T03:16:10.624Z,14.06
2023-05-15T03:18:55.708Z,14.08
2023-05-15T03:21:32.456Z,14.08
2023-05-15T03:24:08.948Z,14.09
2023-05-15T03:26:45.150Z,14.09
2023-05-15T03:29:28.891Z,14.10
2023-05-15T03:32:11.686Z,14.11
2023-05-15T03:34:49.100Z,14.14
2023-05-15T03:37:41.935Z,14.16
2023-05-15T03:40:17.674Z,14.18
2023-05-15T03:42:53.662Z,14.22
2023-05-15T03:45:26.953Z,14.24
2023-05-15T03:48:20.334Z,14.25
2023-05-15T03:50:56.390Z,14.26
2023-05-15T03:53:29.534Z,14.26
2023-05-15T03:56:21.980Z,14.24
2023-05-15T03:59:08.498Z,14.20
2023-05-15T04:02:05.415Z,14.20
2023-05-15T04:04:58.716Z,14.21
2023-05-15T04:07:38.211Z,14.22
2023-05-15T04:10:32.699Z,14.23
2023-05-15T04:13:07.758Z,14.23
2023-05-15T04:15:49.950Z,14.23
2023-05-15T04:18:26.254Z,14.25
2023-05-15T04:21:19.525Z,14.25
2023-05-15T04:23:57.620Z,14.25
2023-05-15T04:26:50.798Z,14.26
2023-05-15T04:29:43.730Z,14.24
2023-05-15T04:32:27.732Z,14.21
2023-05-15T04:35:20.753Z,14.19
2023-05-15T04:38:13.722Z,14.18
2023-05-15T04:40:51.713Z,14.17
2023-05-15T04:43:31.961Z,14.16
2023-05-15T04:46:07.926Z,14.11
2023-05-15T04:48:42.557Z,14.04
2023-05-15T04:51:26.056Z,13.96
2023-05-15T04:54:07.889Z,13.88
2023-05-15T04:56:52.338Z,13.81
2023-05-15T04:59:28.788Z,13.77
2023-05-15T05:02:06.858Z,13.74
2023-05-15T05:04:50.511Z,13.72
2023-05-15T05:07:26.313Z,13.72
2023-05-15T05:10:04.102Z,13.73
2023-05-15T05:12:57.007Z,13.76
2023-05-15T05:15:32.927Z,13.79
2023-05-15T05:18:25.863Z,13.80
2023-05-15T05:21:18.580Z,13.79
2023-05-15T05:23:53.491Z,13.80
2023-05-15T05:26:39.985Z,13.78
2023-05-15T05:29:14.921Z,13.76
2023-05-15T05:32:08.821Z,13.73
2023-05-15T05:35:01.930Z,13.71
2023-05-15T05:37:38.743Z,13.68
2023-05-15T05:40:14.391Z,13.65
2023-05-15T05:42:48.248Z,13.62
2023-05-15T05:45:21.359Z,13.61
2023-05-15T05:47:58.403Z,13.60
2023-05-15T05:50:35.829Z,13.61
2023-05-15T05:53:13.348Z,13.63
2023-05-15T05:55:46.464Z,13.65
2023-05-15T05:58:25.615Z,13.65
2023-05-15T06:01:20.082Z,13.66
2023-05-15T06:04:03.024Z,13.71
2023-05-15T06:06:35.671Z,13.75
2023-05-15T06:09:12.287Z,13.80
2023-05-15T06:12:05.725Z,13.87
2023-05-15T06:14:38.559Z,13.94
2023-05-15T06:17:15.506Z,13.99
2023-05-15T06:19:50.658Z,14.06
2023-05-15T06:22:34.160Z,14.10
2023-05-15T06:25:13.747Z,14.13
2023-05-15T06:27:48.704Z,14.13
2023-05-15T06:30:31.306Z,14.11
2023-05-15T06:33:15.096Z,14.09
2023-05-15T06:35:50.840Z,14.12
2023-05-15T06:38:25.961Z,14.15
2023-05-15T06:41:20.385Z,14.19
2023-05-15T06:44:13.363Z,14.22
2023-05-15T06:47:09.022Z,14.28
2023-05-15T06:49:42.076Z,14.35
2023-05-15T06:52:17.613Z,14.41
2023-05-15T06:55:12.161Z,14.44
2023-05-15T06:57:44.431Z,14.48
2023-05-15T07:00:21.043Z,14.52
2023-05-15T07:03:16.363Z,14.61
2023-05-15T07:06:09.496Z,14.71
2023-05-15T07:08:56.136Z,14.82
2023-05-15T07:11:48.936Z,14.92
2023-05-15T07:14:34.216Z,14.95
2023-05-15T07:17:19.567Z,14.94
2023-05-15T07:19:55.729Z,14.90
2023-05-15T07:22:56.278Z,14.84
2023-05-15T07:25:49.524Z,14.80
2023-05-15T07:28:42.579Z,14.81
2023-05-15T07:31:26.386Z,14.78
2023-05-15T07:34:12.376Z,14.73
2023-05-15T07:36:48.118Z,14.73
2023-05-15T07:39:25.763Z,14.71
2023-05-15T07:42:19.882Z,14.73
2023-05-15T07:44:57.980Z,14.76
2023-05-15T07:47:33.017Z,14.81
2023-05-15T07:50:11.013Z,14.87
2023-05-15T07:53:03.831Z,14.92
2023-05-15T07:55:36.718Z,14.95
2023-05-15T07:58:30.705Z,14.97
2023-05-15T08:01:24.071Z,14.99
2023-05-15T08:04:17.787Z,14.97
2023-05-15T08:06:50.347Z,14.94
2023-05-15T08:09:26.411Z,14.91
2023-05-15T08:12:16.766Z,14.91
2023-05-15T08:14:50.404Z,14.94
2023-05-15T08:17:23.503Z,14.97
2023-05-15T08:20:16.622Z,14.99
2023-05-15T08:22:59.333Z,15.02
2023-05-15T08:25:39.186Z,15.05
2023-05-15T08:28:31.856Z,15.09
2023-05-15T08:31:17.309Z,15.13
2023-05-15T08:33:59.667Z,15.22
2023-05-15T08:36:42.434Z,15.32
2023-05-15T08:39:19.503Z,15.47
2023-05-15T08:42:10.281Z,15.69
2023-05-15T08:44:43.910Z,15.95
2023-05-15T08:47:40.831Z,16.17
2023-05-15T08:50:33.932Z,16.36
2023-05-15T08:53:21.076Z,16.54
2023-05-15T08:56:13.989Z,16.69
2023-05-15T08:59:07.212Z,16.83
2023-05-15T09:02:00.976Z,16.92
2023-05-15T09:04:43.176Z,17.00
2023-05-15T09:07:26.107Z,16.98
2023-05-15T09:10:00.464Z,16.93
2023-05-15T09:12:54.802Z,16.91
2023-05-15T09:15:39.063Z,16.93
2023-05-15T09:18:33.840Z,16.96
2023-05-15T09:21:28.410Z,17.01
2023-05-15T09:24:24.723Z,17.10
2023-05-15T09:27:12.001Z,17.18
2023-05-15T09:30:13.944Z,17.23
2023-05-15T09:32:53.478Z,17.31
2023-05-15T09:35:38.517Z,17.44
2023-05-15T09:38:14.264Z,17.57
2023-05-15T09:41:04.680Z,17.65
2023-05-15T09:43:41.531Z,17.65
2023-05-15T09:46:24.806Z,17.61
2023-05-15T09:49:02.489Z,17.56
2023-05-15T09:51:35.162Z,17.59
2023-05-15T09:54:30.076Z,17.70
2023-05-15T09:57:24.992Z,17.77
2023-05-15T10:00:22.531Z,17.91
2023-05-15T10:03:04.883Z,18.08
2023-05-15T10:05:43.692Z,18.10
2023-05-15T10:08:28.878Z,18.05
2023-05-15T10:11:05.288Z,18.00
2023-05-15T10:13:39.125Z,17.97
2023-05-15T10:16:12.448Z,17.96
2023-05-15T10:18:52.072Z,18.06
2023-05-15T10:21:28.960Z,18.19
2023-05-15T10:24:07.825Z,18.30
2023-05-15T10:26:42.292Z,18.44
2023-05-15T10:29:36.605Z,18.72
2023-05-15T10:32:09.802Z,19.01
2023-05-15T10:34:53.607Z,19.38
2023-05-15T10:37:32.269Z,19.83
2023-05-15T10:40:11.534Z,20.17
2023-05-15T10:43:07.153Z,20.35
2023-05-15T10:46:01.013Z,20.42
2023-05-15T10:48:46.632Z,20.52
2023-05-15T10:51:29.491Z,20.54
2023-05-15T10:54:11.972Z,20.51
2023-05-15T10:56:45.544Z,20.50
2023-05-15T10:59:18.295Z,20.53
2023-05-15T11:01:53.257Z,20.53
2023-05-15T11:04:38.924Z,20.61
2023-05-15T11:07:21.336Z,20.72
2023-05-15T11:10:40.126Z,20.84
2023-05-15T11:13:26.907Z,20.85
2023-05-15T11:17:00.630Z,20.75
2023-05-15T11:20:00.943Z,20.72
2023-05-15T11:22:37.704Z,20.65
2023-05-15T11:25:18.537Z,20.44
2023-05-15T11:27:56.303Z,20.22
2023-05-15T11:30:44.199Z,20.09
2023-05-15T11:33:41.684Z,20.17
2023-05-15T11:36:35.169Z,20.42
2023-05-15T11:39:18.997Z,20.85
2023-05-15T11:42:18.680Z,21.39
2023-05-15T11:45:03.588Z,21.89
2023-05-15T11:47:45.015Z,22.16
2023-05-15T11:50:42.261Z,22.03
2023-05-15T11:53:37.049Z,21.49
2023-05-15T11:56:31.140Z,21.00
2023-05-15T11:59:04.318Z,20.64
2023-05-15T12:01:58.117Z,20.34
2023-05-15T12:04:55.225Z,20.08
2023-05-15T12:07:48.485Z,19.83
2023-05-15T12:10:44.273Z,19.59
2023-05-15T12:13:18.938Z,19.39
2023-05-15T12:16:02.156Z,19.19
2023-05-15T12:18:51.482Z,19.02
2023-05-15T12:21:49.092Z,18.89
2023-05-15T12:24:24.566Z,18.83
2023-05-15T12:27:17.548Z,18.80
2023-05-15T12:29:50.410Z,18.76
2023-05-15T12:32:23.354Z,18.72
2023-05-15T12:34:56.217Z,18.63
2023-05-15T12:37:29.565Z,18.51
2023-05-15T12:40:08.082Z,18.43
2023-05-15T12:42:45.970Z,18.35
2023-05-15T12:45:19.988Z,18.29
2023-05-15T12:47:55.405Z,18.28
2023-05-15T12:50:30.879Z,18.28
2023-05-15T12:53:05.312Z,18.26
2023-05-15T12:55:38.558Z,18.20
2023-05-15T12:58:12.556Z,18.14
2023-05-15T13:00:46.454Z,18.12
2023-05-15T13:03:23.054Z,18.15
2023-05-15T13:05:55.898Z,18.20
2023-05-15T13:08:29.264Z,18.22
2023-05-15T13:11:03.133Z,18.21
2023-05-15T13:13:49.602Z,18.16
2023-05-15T13:16:29.806Z,18.11
2023-05-15T13:19:05.790Z,18.07
2023-05-15T13:21:38.527Z,18.09
2023-05-15T13:24:12.214Z,18.11
2023-05-15T13:26:44.684Z,18.16
2023-05-15T13:29:18.763Z,18.27
2023-05-15T13:31:51.866Z,18.41
2023-05-15T13:34:24.598Z,18.65
2023-05-15T13:36:57.076Z,18.83
2023-05-15T13:39:29.389Z,18.94
2023-05-15T13:42:02.270Z,19.06
2023-05-15T13:44:35.989Z,19.16
2023-05-15T13:47:10.717Z,19.31
2023-05-15T13:49:43.596Z,19.43
2023-05-15T13:52:18.308Z,19.56
2023-05-15T13:54:53.716Z,19.65
2023-05-15T13:57:26.835Z,19.65
2023-05-15T14:00:17.437Z,19.61
2023-05-15T14:03:11.293Z,19.56
2023-05-15T14:05:46.082Z,19.52
2023-05-15T14:08:21.366Z,19.48
2023-05-15T14:11:14.612Z,19.46
2023-05-15T14:14:00.245Z,19.45
2023-05-15T14:16:53.769Z,19.32
2023-05-15T14:19:36.558Z,19.14
2023-05-15T14:22:18.406Z,18.93
2023-05-15T14:25:00.885Z,18.77
2023-05-15T14:27:37.370Z,18.65
2023-05-15T14:30:20.153Z,18.52
2023-05-15T14:32:53.120Z,18.38
2023-05-15T14:35:28.833Z,18.25
2023-05-15T14:38:12.818Z,18.13
2023-05-15T14:40:45.592Z,18.06
2023-05-15T14:43:21.549Z,18.03
2023-05-15T14:45:54.238Z,18.04
2023-05-15T14:48:48.680Z,18.03
2023-05-15T14:51:41.540Z,18.03
2023-05-15T14:54:17.501Z,18.04
2023-05-15T14:56:55.711Z,18.01
2023-05-15T14:59:39.432Z,17.99
2023-05-15T15:02:22.585Z,18.00
2023-05-15T15:05:16.048Z,18.02
2023-05-15T15:08:10.051Z,18.04
2023-05-15T15:10:55.486Z,18.13
2023-05-15T15:13:48.459Z,18.32
2023-05-15T15:16:44.266Z,18.62
2023-05-15T15:19:27.097Z,18.91
2023-05-15T15:22:09.883Z,19.16
2023-05-15T15:25:02.582Z,19.32
2023-05-15T15:27:39.321Z,19.35
2023-05-15T15:30:16.228Z,19.32
2023-05-15T15:32:50.195Z,19.27
2023-05-15T15:35:42.991Z,19.18
2023-05-15T15:38:18.844Z,19.18
2023-05-15T15:41:05.806Z,19.17
2023-05-15T15:43:58.637Z,19.15
2023-05-15T15:46:34.459Z,19.25
2023-05-15T15:49:07.679Z,19.32
2023-05-15T15:51:59.181Z,19.37
2023-05-15T15:54:51.928Z,19.40
2023-05-15T15:57:35.839Z,19.38
2023-05-15T16:00:12.183Z,19.34
2023-05-15T16:02:47.973Z,19.25
2023-05-15T16:05:21.084Z,19.16
2023-05-15T16:08:03.133Z,19.11
2023-05-15T16:10:36.476Z,19.10
2023-05-15T16:13:08.945Z,19.03
2023-05-15T16:15:44.697Z,18.97
2023-05-15T16:18:20.576Z,18.92
2023-05-15T16:20:53.560Z,18.90
2023-05-15T16:23:26.418Z,18.85
2023-05-15T16:26:02.765Z,18.76
2023-05-15T16:28:38.861Z,18.70
2023-05-15T16:31:31.944Z,18.61
2023-05-15T16:34:06.954Z,18.55
2023-05-15T16:36:42.741Z,18.51
2023-05-15T16:39:19.937Z,18.49
2023-05-15T16:41:52.684Z,18.48
2023-05-15T16:44:26.010Z,18.46
2023-05-15T16:47:00.519Z,18.45
2023-05-15T16:49:36.014Z,18.46
2023-05-15T16:52:19.424Z,18.46
2023-05-15T16:54:57.504Z,18.51
2023-05-15T16:57:41.547Z,18.63
2023-05-15T17:00:17.952Z,18.72
2023-05-15T17:02:50.819Z,18.83
2023-05-15T17:05:35.016Z,18.93
2023-05-15T17:08:18.801Z,18.99
2023-05-15T17:10:51.597Z,19.03
2023-05-15T17:13:26.507Z,19.04
2023-05-15T17:16:00.819Z,19.00
2023-05-15T17:18:36.982Z,18.93
2023-05-15T17:21:12.389Z,18.84
2023-05-15T17:23:47.676Z,18.76
2023-05-15T17:26:23.848Z,18.70
2023-05-15T17:28:56.485Z,18.60
2023-05-15T17:31:29.772Z,18.47
2023-05-15T17:34:02.368Z,18.33
2023-05-15T17:36:35.422Z,18.20
2023-05-15T17:39:09.067Z,18.09
2023-05-15T17:41:41.650Z,17.96
2023-05-15T17:44:14.243Z,17.82
2023-05-15T17:46:46.657Z,17.66
2023-05-15T17:49:19.282Z,17.50
2023-05-15T17:51:52.112Z,17.37
2023-05-15T17:54:24.904Z,17.25
2023-05-15T17:56:57.388Z,17.14
2023-05-15T17:59:31.233Z,17.03
2023-05-15T18:02:04.643Z,16.92
2023-05-15T18:04:37.324Z,16.83
2023-05-15T18:07:09.763Z,16.74
2023-05-15T18:09:42.717Z,16.68
2023-05-15T18:12:16.548Z,16.60
2023-05-15T18:14:49.541Z,16.52
2023-05-15T18:17:22.803Z,16.45
2023-05-15T18:19:55.507Z,16.37
2023-05-15T18:22:28.617Z,16.31
2023-05-15T18:25:02.174Z,16.23
2023-05-15T18:27:34.842Z,16.14
2023-05-15T18:30:09.251Z,16.05
2023-05-15T18:32:41.813Z,15.98
2023-05-15T18:35:16.159Z,15.93
2023-05-15T18:37:49.005Z,15.88
2023-05-15T18:40:24.617Z,15.83
2023-05-15T18:42:58.091Z,15.78
2023-05-15T18:45:30.802Z,15.74
2023-05-15T18:48:05.338Z,15.70
2023-05-15T18:50:38.286Z,15.67
2023-05-15T18:53:10.919Z,15.64
2023-05-15T18:55:43.549Z,15.62
2023-05-15T18:58:15.922Z,15.61
2023-05-15T19:00:48.709Z,15.59
2023-05-15T19:03:21.705Z,15.56
2023-05-15T19:05:54.136Z,15.53
2023-05-15T19:08:26.769Z,15.49
2023-05-15T19:11:01.355Z,15.47
2023-05-15T19:13:34.390Z,15.46
2023-05-15T19:16:07.769Z,15.46
2023-05-15T19:18:40.444Z,15.45
2023-05-15T19:21:15.380Z,15.45
2023-05-15T19:23:47.980Z,15.44
2023-05-15T19:26:21.759Z,15.44
2023-05-15T19:28:54.475Z,15.43
2023-05-15T19:31:31.839Z,15.42
2023-05-15T19:34:04.968Z,15.42
2023-05-15T19:36:37.321Z,15.42
2023-05-15T19:39:10.090Z,15.42
2023-05-15T19:41:46.247Z,15.41
2023-05-15T19:44:32.738Z,15.41
2023-05-15T19:47:09.750Z,15.40
2023-05-15T19:49:42.208Z,15.40
2023-05-15T19:52:20.405Z,15.40
2023-05-15T19:54:56.166Z,15.40
2023-05-15T19:57:28.889Z,15.39
2023-05-15T20:00:06.250Z,15.38
2023-05-15T20:02:52.062Z,15.36
2023-05-15T20:05:24.521Z,15.34
2023-05-15T20:07:57.332Z,15.32
2023-05-15T20:10:54.906Z,15.28
2023-05-15T20:13:31.101Z,15.24
2023-05-15T20:16:11.146Z,15.21
2023-05-15T20:18:54.641Z,15.17
2023-05-15T20:21:31.523Z,15.15
2023-05-15T20:24:10.518Z,15.11
2023-05-15T20:26:43.486Z,15.09
2023-05-15T20:29:25.746Z,15.05
2023-05-15T20:32:01.514Z,15.02
2023-05-15T20:34:56.118Z,14.99
2023-05-15T20:37:32.104Z,14.97
2023-05-15T20:40:26.349Z,14.94
2023-05-15T20:43:08.520Z,14.93
2023-05-15T20:45:48.417Z,14.92
2023-05-15T20:48:29.640Z,14.93
2023-05-15T20:51:05.522Z,14.94
2023-05-15T20:53:41.202Z,14.96
2023-05-15T20:56:14.326Z,14.98
2023-05-15T20:58:59.614Z,15.00
2023-05-15T21:01:38.351Z,15.05
2023-05-15T21:04:32.423Z,15.10
2023-05-15T21:07:10.149Z,15.13
2023-05-15T21:09:45.934Z,15.16
2023-05-15T21:12:25.989Z,15.19
2023-05-15T21:15:11.213Z,15.22
2023-05-15T21:17:49.433Z,15.26
2023-05-15T21:20:35.344Z,15.29
2023-05-15T21:23:28.246Z,15.32
2023-05-15T21:26:03.328Z,15.36
2023-05-15T21:28:39.862Z,15.39
2023-05-15T21:31:15.278Z,15.40
2023-05-15T21:33:51.322Z,15.41
2023-05-15T21:36:24.124Z,15.40
2023-05-15T21:39:01.429Z,15.37
2023-05-15T21:41:54.180Z,15.34
2023-05-15T21:44:29.745Z,15.32
2023-05-15T21:47:22.992Z,15.29
2023-05-15T21:50:06.257Z,15.27
2023-05-15T21:53:01.548Z,15.27
2023-05-15T21:55:40.302Z,15.27
2023-05-15T21:58:34.773Z,15.28
2023-05-15T22:01:16.419Z,15.29
2023-05-15T22:04:09.572Z,15.30
2023-05-15T22:06:46.476Z,15.33
2023-05-15T22:09:22.661Z,15.36
2023-05-15T22:11:55.245Z,15.37
2023-05-15T22:14:57.040Z,15.38
2023-05-15T22:17:42.433Z,15.38
2023-05-15T22:20:20.510Z,15.38
2023-05-15T22:23:04.973Z,15.39
2023-05-15T22:25:51.664Z,15.38
2023-05-15T22:28:26.916Z,15.41
2023-05-15T22:31:20.018Z,15.41
2023-05-15T22:33:56.443Z,15.42
2023-05-15T22:36:35.222Z,15.43
2023-05-15T22:39:27.870Z,15.42
2023-05-15T22:42:11.292Z,15.42
2023-05-15T22:45:04.469Z,15.42
2023-05-15T22:47:40.129Z,15.43
2023-05-15T22:50:16.259Z,15.45
2023-05-15T22:52:49.366Z,15.46
2023-05-15T22:55:42.568Z,15.48
2023-05-15T22:58:26.849Z,15.50
2023-05-15T23:00:59.817Z,15.53
2023-05-15T23:03:53.730Z,15.54
2023-05-15T23:06:36.733Z,15.56
2023-05-15T23:09:11.916Z,15.57
2023-05-15T23:11:50.305Z,15.58
2023-05-15T23:14:25.935Z,15.60
2023-05-15T23:17:02.072Z,15.60
2023-05-15T23:19:54.850Z,15.62
2023-05-15T23:22:27.489Z,15.61
2023-05-15T23:25:10.862Z,15.56
2023-05-15T23:28:05.494Z,15.48
2023-05-15T23:30:40.730Z,15.41
2023-05-15T23:33:13.527Z,15.33
2023-05-15T23:35:46.277Z,15.25
2023-05-15T23:38:39.912Z,15.16
2023-05-15T23:41:17.253Z,15.07
2023-05-15T23:43:53.020Z,15.00
2023-05-15T23:46:40.343Z,14.92
2023-05-15T23:49:27.024Z,14.88
2023-05-15T23:52:19.791Z,14.87
2023-05-15T23:54:54.775Z,14.88
2023-05-15T23:57:30.798Z,14.89
